createdAt,value
2022-11-09T00:01:31.599Z,4.47
2022-11-09T00:04:00.844Z,3.83
2022-11-09T00:06:29.638Z,5.50
2022-11-09T00:08:59.418Z,4.17
2022-11-09T00:11:31.750Z,4.13
2022-11-09T00:13:59.468Z,4.50
2022-11-09T00:16:27.379Z,3.53
2022-11-09T00:18:56.017Z,5.50
2022-11-09T00:21:26.315Z,5.40
2022-11-09T00:23:54.612Z,5.80
2022-11-09T00:26:23.390Z,3.27
2022-11-09T00:28:52.882Z,3.53
2022-11-09T00:31:22.875Z,4.03
2022-11-09T00:33:52.236Z,3.23
2022-11-09T00:36:21.697Z,3.73
2022-11-09T00:38:51.065Z,3.23
2022-11-09T00:41:19.585Z,4.23
2022-11-09T00:43:48.187Z,3.23
2022-11-09T00:46:18.769Z,3.07
2022-11-09T00:48:47.488Z,3.93
2022-11-09T00:51:15.876Z,2.60
2022-11-09T00:53:43.747Z,2.93
2022-11-09T00:56:13.837Z,3.40
2022-11-09T00:58:42.489Z,2.93
2022-11-09T01:01:13.759Z,2.50
2022-11-09T01:03:45.256Z,2.90
2022-11-09T01:06:16.978Z,2.80
2022-11-09T01:08:45.376Z,2.30
2022-11-09T01:11:16.271Z,2.47
2022-11-09T01:13:44.849Z,2.60
2022-11-09T01:16:15.037Z,3.67
2022-11-09T01:18:44.551Z,2.20
2022-11-09T01:21:15.371Z,1.70
2022-11-09T01:23:43.866Z,2.67
2022-11-09T01:26:13.723Z,1.80
2022-11-09T01:28:42.191Z,2.33
2022-11-09T01:31:14.304Z,1.63
2022-11-09T01:33:44.353Z,1.47
2022-11-09T01:36:15.193Z,1.50
2022-11-09T01:38:44.275Z,1.33
2022-11-09T01:41:15.631Z,1.73
2022-11-09T01:43:43.959Z,2.07
2022-11-09T01:46:18.242Z,1.53
2022-11-09T01:48:53.599Z,1.17
2022-11-09T01:51:27.435Z,1.17
2022-11-09T01:54:00.724Z,1.70
2022-11-09T01:56:30.276Z,1.60
2022-11-09T01:59:02.546Z,0.77
2022-11-09T02:01:32.887Z,1.40
2022-11-09T02:04:08.203Z,1.63
2022-11-09T02:06:37.535Z,2.60
2022-11-09T02:09:12.750Z,1.60
2022-11-09T02:11:41.793Z,1.33
2022-11-09T02:14:09.881Z,1.53
2022-11-09T02:16:39.264Z,1.27
2022-11-09T02:19:08.584Z,0.77
2022-11-09T02:21:38.106Z,1.60
2022-11-09T02:24:07.031Z,0.80
2022-11-09T02:26:40.181Z,0.87
2022-11-09T02:29:11.337Z,1.70
2022-11-09T02:31:43.266Z,1.37
2022-11-09T02:34:15.049Z,0.80
2022-11-09T02:36:44.726Z,1.70
2022-11-09T02:39:20.085Z,0.67
2022-11-09T02:41:51.570Z,1.07
2022-11-09T02:44:20.184Z,0.70
2022-11-09T02:46:48.412Z,0.97
2022-11-09T02:49:16.285Z,1.43
2022-11-09T02:51:45.730Z,1.97
2022-11-09T02:54:14.501Z,0.80
2022-11-09T02:56:42.657Z,1.30
2022-11-09T02:59:10.550Z,1.23
2022-11-09T03:01:40.316Z,1.20
2022-11-09T03:04:08.137Z,1.00
2022-11-09T03:06:37.600Z,1.60
2022-11-09T03:09:13.841Z,1.27
2022-11-09T03:11:43.635Z,1.00
2022-11-09T03:14:14.675Z,0.70
2022-11-09T03:16:50.756Z,1.60
2022-11-09T03:19:19.273Z,1.00
2022-11-09T03:21:51.319Z,0.93
2022-11-09T03:24:24.582Z,0.57
2022-11-09T03:26:56.357Z,0.97
2022-11-09T03:29:24.616Z,1.20
2022-11-09T03:31:52.485Z,0.60
2022-11-09T03:34:20.186Z,0.87
2022-11-09T03:36:48.332Z,0.60
2022-11-09T03:39:16.047Z,0.70
2022-11-09T03:41:45.219Z,1.30
2022-11-09T03:44:12.958Z,1.00
2022-11-09T03:46:40.726Z,0.70
2022-11-09T03:49:08.480Z,1.10
2022-11-09T03:51:36.191Z,1.27
2022-11-09T03:54:04.265Z,0.70
2022-11-09T03:56:32.417Z,0.87
2022-11-09T03:59:01.539Z,0.60
2022-11-09T04:01:29.759Z,1.13
2022-11-09T04:03:57.523Z,0.80
2022-11-09T04:06:25.731Z,0.73
2022-11-09T04:08:53.492Z,1.00
2022-11-09T04:11:21.529Z,0.67
2022-11-09T04:13:49.314Z,0.87
2022-11-09T04:16:19.049Z,1.20
2022-11-09T04:18:46.770Z,1.17
2022-11-09T04:21:14.907Z,0.70
2022-11-09T04:23:42.718Z,0.83
2022-11-09T04:26:11.025Z,0.90
2022-11-09T04:28:39.079Z,0.60
2022-11-09T04:31:07.267Z,0.60
2022-11-09T04:33:36.451Z,1.23
2022-11-09T04:36:05.017Z,0.70
2022-11-09T04:38:33.212Z,0.60
2022-11-09T04:41:02.287Z,0.67
2022-11-09T04:43:30.350Z,1.27
2022-11-09T04:46:01.121Z,0.90
2022-11-09T04:48:29.259Z,0.80
2022-11-09T04:51:02.275Z,0.47
2022-11-09T04:53:31.548Z,0.50
2022-11-09T04:55:59.708Z,0.67
2022-11-09T04:58:28.193Z,0.93
2022-11-09T05:00:56.085Z,0.77
2022-11-09T05:03:24.400Z,1.37
2022-11-09T05:05:52.185Z,0.30
2022-11-09T05:08:21.638Z,0.63
2022-11-09T05:10:49.463Z,0.40
2022-11-09T05:13:17.445Z,0.93
2022-11-09T05:15:45.538Z,0.80
2022-11-09T05:18:13.809Z,0.73
2022-11-09T05:20:41.551Z,0.50
2022-11-09T05:23:50.505Z,0.43
2022-11-09T05:26:18.278Z,0.37
2022-11-09T05:28:46.593Z,0.53
2022-11-09T05:31:14.682Z,0.53
2022-11-09T05:33:42.508Z,0.50
2022-11-09T05:36:10.545Z,0.40
2022-11-09T05:38:39.680Z,0.47
2022-11-09T05:41:07.523Z,0.30
2022-11-09T05:43:35.580Z,0.60
2022-11-09T05:46:06.574Z,0.50
2022-11-09T05:48:35.026Z,1.13
2022-11-09T05:51:04.163Z,0.60
2022-11-09T05:53:33.131Z,0.47
2022-11-09T05:56:07.499Z,0.80
2022-11-09T05:58:39.033Z,1.53
2022-11-09T06:01:07.727Z,1.20
2022-11-09T06:03:36.539Z,1.73
2022-11-09T06:06:08.706Z,2.73
2022-11-09T06:08:37.509Z,1.53
2022-11-09T06:11:09.796Z,0.80
2022-11-09T06:13:38.199Z,0.77
2022-11-09T06:16:07.208Z,0.60
2022-11-09T06:18:37.228Z,0.50
2022-11-09T06:21:06.397Z,0.60
2022-11-09T06:23:35.070Z,0.50
2022-11-09T06:26:06.373Z,0.47
2022-11-09T06:28:36.053Z,1.53
2022-11-09T06:31:05.445Z,1.60
2022-11-09T06:33:35.353Z,1.93
2022-11-09T06:36:03.859Z,1.27
2022-11-09T06:38:32.107Z,1.50
2022-11-09T06:41:00.775Z,1.13
2022-11-09T06:43:29.420Z,2.07
2022-11-09T06:45:58.838Z,0.73
2022-11-09T06:48:26.982Z,0.50
2022-11-09T06:50:54.791Z,0.83
2022-11-09T06:53:23.817Z,0.70
2022-11-09T06:55:52.414Z,1.23
2022-11-09T06:58:20.787Z,0.77
2022-11-09T07:00:48.944Z,0.93
2022-11-09T07:03:20.557Z,0.60
2022-11-09T07:05:50.235Z,0.80
2022-11-09T07:08:19.154Z,0.43
2022-11-09T07:10:47.818Z,0.70
2022-11-09T07:13:15.651Z,0.73
2022-11-09T07:15:43.673Z,0.47
2022-11-09T07:18:13.188Z,0.80
2022-11-09T07:20:42.906Z,0.97
2022-11-09T07:23:10.629Z,1.83
2022-11-09T07:25:38.673Z,1.73
2022-11-09T07:28:07.608Z,5.80
2022-11-09T07:30:36.562Z,2.37
2022-11-09T07:33:09.573Z,1.70
2022-11-09T07:35:38.828Z,2.60
2022-11-09T07:38:08.395Z,2.00
2022-11-09T07:40:36.812Z,2.13
2022-11-09T07:43:06.434Z,1.73
2022-11-09T07:45:36.891Z,1.97
2022-11-09T07:48:08.088Z,2.87
2022-11-09T07:50:38.753Z,3.00
2022-11-09T07:53:08.768Z,2.47
2022-11-09T07:55:37.550Z,2.43
2022-11-09T07:58:06.977Z,3.27
2022-11-09T08:00:37.523Z,1.20
2022-11-09T08:03:06.096Z,1.03
2022-11-09T08:05:34.760Z,2.87
2022-11-09T08:08:04.770Z,1.83
2022-11-09T08:10:36.309Z,1.50
2022-11-09T08:13:06.722Z,1.33
2022-11-09T08:15:36.804Z,1.10
2022-11-09T08:18:07.886Z,1.50
2022-11-09T08:20:36.506Z,1.10
2022-11-09T08:23:05.301Z,2.40
2022-11-09T08:25:36.438Z,2.03
2022-11-09T08:28:04.577Z,1.20
2022-11-09T08:30:32.964Z,3.90
2022-11-09T08:33:01.566Z,4.60
2022-11-09T08:35:31.463Z,3.67
2022-11-09T08:38:02.750Z,2.10
2022-11-09T08:40:32.689Z,1.70
2022-11-09T08:43:04.801Z,1.40
2022-11-09T08:45:34.446Z,1.30
2022-11-09T08:48:02.997Z,1.53
2022-11-09T08:50:31.975Z,1.30
2022-11-09T08:52:59.885Z,0.70
2022-11-09T08:55:28.300Z,1.73
2022-11-09T08:57:57.110Z,0.90
2022-11-09T09:00:27.357Z,0.87
2022-11-09T09:02:55.308Z,0.87
2022-11-09T09:05:23.295Z,0.60
2022-11-09T09:07:51.053Z,0.50
2022-11-09T09:10:19.410Z,0.80
2022-11-09T09:12:47.511Z,0.50
2022-11-09T09:15:15.228Z,0.80
2022-11-09T09:17:44.296Z,0.80
2022-11-09T09:20:12.549Z,0.60
2022-11-09T09:22:40.914Z,0.47
2022-11-09T09:25:10.304Z,0.40
2022-11-09T09:27:38.133Z,0.57
2022-11-09T09:30:07.290Z,0.47
2022-11-09T09:32:35.015Z,0.40
2022-11-09T09:35:04.713Z,0.33
2022-11-09T09:37:32.399Z,0.50
2022-11-09T09:40:00.570Z,1.27
2022-11-09T09:42:32.739Z,0.50
2022-11-09T09:45:05.871Z,0.70
2022-11-09T09:47:46.063Z,0.40
2022-11-09T09:50:20.003Z,0.50
2022-11-09T09:53:22.021Z,0.50
2022-11-09T09:55:44.935Z,0.60
2022-11-09T09:58:14.873Z,1.43
2022-11-09T10:00:44.518Z,0.60
2022-11-09T10:03:18.443Z,0.53
2022-11-09T10:05:56.454Z,0.60
2022-11-09T10:08:34.606Z,0.73
2022-11-09T10:11:13.862Z,0.47
2022-11-09T10:14:05.411Z,0.60
2022-11-09T10:16:42.099Z,1.10
2022-11-09T10:19:27.389Z,0.40
2022-11-09T10:22:03.987Z,1.43
2022-11-09T10:24:58.773Z,0.87
2022-11-09T10:27:35.205Z,0.60
2022-11-09T10:30:08.804Z,0.50
2022-11-09T10:32:37.268Z,1.00
2022-11-09T10:35:16.541Z,0.60
2022-11-09T10:37:49.030Z,0.43
2022-11-09T10:40:20.930Z,0.60
2022-11-09T10:43:11.494Z,0.33
2022-11-09T10:46:05.275Z,0.90
2022-11-09T10:48:53.333Z,0.80
2022-11-09T10:51:42.297Z,0.50
2022-11-09T10:54:32.527Z,0.33
2022-11-09T10:57:21.163Z,1.43
2022-11-09T11:00:16.115Z,0.67
2022-11-09T11:03:12.552Z,0.57
2022-11-09T11:06:01.022Z,0.63
2022-11-09T11:08:49.491Z,0.70
2022-11-09T11:11:39.526Z,0.73
2022-11-09T11:14:33.036Z,0.70
2022-11-09T11:17:24.495Z,0.50
2022-11-09T11:20:31.628Z,0.77
2022-11-09T11:23:21.411Z,1.00
2022-11-09T11:26:24.972Z,1.10
2022-11-09T11:29:32.503Z,1.33
2022-11-09T11:32:21.261Z,0.80
2022-11-09T11:35:15.363Z,0.70
2022-11-09T11:38:16.250Z,1.33
2022-11-09T11:41:16.418Z,0.73
2022-11-09T11:44:09.566Z,0.90
2022-11-09T11:47:03.897Z,1.03
2022-11-09T11:50:01.225Z,1.33
2022-11-09T11:53:00.856Z,0.67
2022-11-09T11:56:09.098Z,0.70
2022-11-09T11:59:09.987Z,0.73
2022-11-09T12:02:36.013Z,0.80
2022-11-09T12:05:38.563Z,1.00
2022-11-09T12:08:32.640Z,0.77
2022-11-09T12:11:35.609Z,0.67
2022-11-09T12:14:33.265Z,1.07
2022-11-09T12:17:29.744Z,1.00
2022-11-09T12:20:27.146Z,0.80
2022-11-09T12:23:30.561Z,1.00
2022-11-09T12:26:24.413Z,0.70
2022-11-09T12:29:20.440Z,1.80
2022-11-09T12:32:18.506Z,0.50
2022-11-09T12:35:21.496Z,0.70
2022-11-09T12:38:15.428Z,0.63
2022-11-09T12:41:06.436Z,0.80
2022-11-09T12:43:56.300Z,0.67
2022-11-09T12:46:50.362Z,0.77
2022-11-09T12:49:40.062Z,1.40
2022-11-09T12:52:31.120Z,0.87
2022-11-09T12:55:22.152Z,1.33
2022-11-09T12:58:08.995Z,1.20
2022-11-09T13:00:57.446Z,1.23
2022-11-09T13:03:55.107Z,0.80
2022-11-09T13:06:42.549Z,1.00
2022-11-09T13:09:44.072Z,0.80
2022-11-09T13:12:37.553Z,1.47
2022-11-09T13:15:26.723Z,0.50
2022-11-09T13:18:25.826Z,1.03
2022-11-09T13:21:39.969Z,1.73
2022-11-09T13:24:56.227Z,1.90
2022-11-09T13:27:45.722Z,1.67
2022-11-09T13:30:41.699Z,1.07
2022-11-09T13:33:28.705Z,0.53
2022-11-09T13:36:18.277Z,0.53
2022-11-09T13:39:29.054Z,0.70
2022-11-09T13:42:31.937Z,0.37
2022-11-09T13:45:29.897Z,2.00
2022-11-09T13:48:34.935Z,1.37
2022-11-09T13:51:24.147Z,1.67
2022-11-09T13:54:29.873Z,1.37
2022-11-09T13:57:17.548Z,1.17
2022-11-09T14:00:09.272Z,0.60
2022-11-09T14:02:58.246Z,0.80
2022-11-09T14:05:45.672Z,0.90
2022-11-09T14:08:40.447Z,0.70
2022-11-09T14:11:59.038Z,0.90
2022-11-09T14:15:22.322Z,0.67
2022-11-09T14:18:20.463Z,0.73
2022-11-09T14:21:16.440Z,0.77
2022-11-09T14:24:04.641Z,0.87
2022-11-09T14:27:02.755Z,0.83
2022-11-09T14:29:55.542Z,0.80
2022-11-09T14:32:49.583Z,0.60
2022-11-09T14:35:39.321Z,0.70
2022-11-09T14:38:29.388Z,1.10
2022-11-09T14:41:22.402Z,0.63
2022-11-09T14:44:16.974Z,1.00
2022-11-09T14:47:04.898Z,1.10
2022-11-09T14:49:53.675Z,0.67
2022-11-09T14:52:41.452Z,0.60
2022-11-09T14:55:29.711Z,1.03
2022-11-09T14:58:16.981Z,0.60
2022-11-09T15:01:09.657Z,0.60
2022-11-09T15:04:11.533Z,0.90
2022-11-09T15:07:02.457Z,0.80
2022-11-09T15:09:52.426Z,0.60
2022-11-09T15:12:43.870Z,0.90
2022-11-09T15:15:35.596Z,1.30
2022-11-09T15:18:33.598Z,0.97
2022-11-09T15:21:33.539Z,0.80
2022-11-09T15:24:23.012Z,0.90
2022-11-09T15:27:29.408Z,1.23
2022-11-09T15:30:28.866Z,0.80
2022-11-09T15:33:25.350Z,0.87
2022-11-09T15:36:24.964Z,0.87
2022-11-09T15:39:16.836Z,1.00
2022-11-09T15:42:05.124Z,1.60
2022-11-09T15:44:55.497Z,1.47
2022-11-09T15:47:42.528Z,0.90
2022-11-09T15:50:29.148Z,1.10
2022-11-09T15:53:16.048Z,0.90
2022-11-09T15:56:03.135Z,1.00
2022-11-09T15:58:52.503Z,0.83
2022-11-09T16:01:40.156Z,1.30
2022-11-09T16:04:26.686Z,1.30
2022-11-09T16:07:15.856Z,1.23
2022-11-09T16:10:02.900Z,1.47
2022-11-09T16:12:49.233Z,0.87
2022-11-09T16:15:38.813Z,1.00
2022-11-09T16:18:26.324Z,1.77
2022-11-09T16:21:15.614Z,1.40
2022-11-09T16:24:02.024Z,1.73
2022-11-09T16:26:49.089Z,0.80
2022-11-09T16:29:35.766Z,1.70
2022-11-09T16:32:23.566Z,0.80
2022-11-09T16:35:27.949Z,0.97
2022-11-09T16:38:16.007Z,0.90
2022-11-09T16:41:04.631Z,0.80
2022-11-09T16:43:53.753Z,2.03
2022-11-09T16:46:43.381Z,0.83
2022-11-09T16:49:32.622Z,1.10
2022-11-09T16:52:19.238Z,1.87
2022-11-09T16:55:08.626Z,1.00
2022-11-09T16:57:55.075Z,1.13
2022-11-09T17:01:04.336Z,0.90
2022-11-09T17:03:52.012Z,1.17
2022-11-09T17:06:40.464Z,1.50
2022-11-09T17:09:27.122Z,1.37
2022-11-09T17:12:13.268Z,1.13
2022-11-09T17:15:00.113Z,1.40
2022-11-09T17:17:46.469Z,1.40
2022-11-09T17:20:33.843Z,1.23
2022-11-09T17:23:21.691Z,0.73
2022-11-09T17:26:09.554Z,1.90
2022-11-09T17:28:55.770Z,1.80
2022-11-09T17:31:42.531Z,0.97
2022-11-09T17:34:28.827Z,1.33
2022-11-09T17:37:15.548Z,1.20
2022-11-09T17:40:03.082Z,1.57
2022-11-09T17:42:49.293Z,1.83
2022-11-09T17:45:36.343Z,1.00
2022-11-09T17:48:23.168Z,0.87
2022-11-09T17:51:10.707Z,1.83
2022-11-09T17:53:57.881Z,0.80
2022-11-09T17:56:45.784Z,1.23
2022-11-09T17:59:32.661Z,1.60
2022-11-09T18:02:19.332Z,1.40
2022-11-09T18:05:06.509Z,1.70
2022-11-09T18:07:52.744Z,1.70
2022-11-09T18:10:41.593Z,3.27
2022-11-09T18:13:29.640Z,2.30
2022-11-09T18:16:18.024Z,3.17
2022-11-09T18:19:05.931Z,2.80
2022-11-09T18:21:52.522Z,2.57
2022-11-09T18:24:38.613Z,2.10
2022-11-09T18:27:30.050Z,2.13
2022-11-09T18:30:18.623Z,2.27
2022-11-09T18:33:05.772Z,1.87
2022-11-09T18:35:57.629Z,2.60
2022-11-09T18:38:44.849Z,2.33
2022-11-09T18:41:31.969Z,4.30
2022-11-09T18:44:18.259Z,3.60
2022-11-09T18:47:08.551Z,3.33
2022-11-09T18:49:55.422Z,4.10
2022-11-09T18:52:42.467Z,3.13
2022-11-09T18:55:28.698Z,3.20
2022-11-09T18:58:16.229Z,3.23
2022-11-09T19:01:06.030Z,3.70
2022-11-09T19:03:59.311Z,3.60
2022-11-09T19:06:46.293Z,3.90
2022-11-09T19:09:38.384Z,3.60
2022-11-09T19:12:25.142Z,4.07
2022-11-09T19:15:11.944Z,4.00
2022-11-09T19:17:58.108Z,3.17
2022-11-09T19:20:47.544Z,4.13
2022-11-09T19:23:34.911Z,3.50
2022-11-09T19:26:22.060Z,4.83
2022-11-09T19:29:09.324Z,3.80
2022-11-09T19:31:55.785Z,4.33
2022-11-09T19:34:42.867Z,5.07
2022-11-09T19:37:30.748Z,4.77
2022-11-09T19:40:17.505Z,5.17
2022-11-09T19:43:03.983Z,4.43
2022-11-09T19:45:50.139Z,4.33
2022-11-09T19:48:36.754Z,4.83
2022-11-09T19:51:23.169Z,4.07
2022-11-09T19:54:12.894Z,4.17
2022-11-09T19:56:59.543Z,4.33
2022-11-09T19:59:46.162Z,3.80
2022-11-09T20:02:32.333Z,5.17
2022-11-09T20:05:18.746Z,4.03
2022-11-09T20:08:06.582Z,4.07
2022-11-09T20:10:54.690Z,4.10
2022-11-09T20:13:41.154Z,3.73
2022-11-09T20:16:27.712Z,4.83
2022-11-09T20:19:14.774Z,3.80
2022-11-09T20:22:01.375Z,3.80
2022-11-09T20:24:48.253Z,3.37
2022-11-09T20:27:36.537Z,4.13
2022-11-09T20:30:23.409Z,4.23
2022-11-09T20:33:10.792Z,4.23
2022-11-09T20:35:57.756Z,4.60
2022-11-09T20:38:44.027Z,5.23
2022-11-09T20:41:32.761Z,3.93
2022-11-09T20:44:20.455Z,4.60
2022-11-09T20:47:06.948Z,5.17
2022-11-09T20:49:53.187Z,4.47
2022-11-09T20:52:39.745Z,5.27
2022-11-09T20:55:25.953Z,4.90
2022-11-09T20:58:13.788Z,6.43
2022-11-09T21:01:03.467Z,4.30
2022-11-09T21:03:51.953Z,5.20
2022-11-09T21:06:38.894Z,5.30
2022-11-09T21:09:26.065Z,4.77
2022-11-09T21:12:27.317Z,6.07
2022-11-09T21:15:15.145Z,4.40
2022-11-09T21:18:02.777Z,4.20
2022-11-09T21:20:49.308Z,5.00
2022-11-09T21:23:55.039Z,4.30
2022-11-09T21:26:58.647Z,4.47
2022-11-09T21:29:53.874Z,4.40
2022-11-09T21:32:41.354Z,5.50
2022-11-09T21:35:29.342Z,4.80
2022-11-09T21:38:16.032Z,3.70
2022-11-09T21:41:24.154Z,3.90
2022-11-09T21:44:12.867Z,4.50
2022-11-09T21:46:59.869Z,3.93
2022-11-09T21:49:46.613Z,4.13
2022-11-09T21:52:34.193Z,3.60
2022-11-09T21:55:20.899Z,3.93
2022-11-09T21:58:07.690Z,2.70
2022-11-09T22:00:54.148Z,3.43
2022-11-09T22:03:42.205Z,3.90
2022-11-09T22:06:28.604Z,3.40
2022-11-09T22:09:18.686Z,3.23
2022-11-09T22:12:22.722Z,4.33
2022-11-09T22:15:28.132Z,4.00
2022-11-09T22:18:34.621Z,3.87
2022-11-09T22:21:20.665Z,3.73
2022-11-09T22:24:07.764Z,4.70
2022-11-09T22:26:55.465Z,4.00
2022-11-09T22:29:42.106Z,4.00
2022-11-09T22:32:28.613Z,5.70
2022-11-09T22:35:15.245Z,5.23
2022-11-09T22:38:02.861Z,4.50
2022-11-09T22:40:49.749Z,4.17
2022-11-09T22:43:39.677Z,4.80
2022-11-09T22:46:26.204Z,5.37
2022-11-09T22:49:12.413Z,4.30
2022-11-09T22:51:58.690Z,5.07
2022-11-09T22:54:45.846Z,4.93
2022-11-09T22:57:32.925Z,4.37
2022-11-09T23:00:22.296Z,5.27
2022-11-09T23:03:08.688Z,4.67
2022-11-09T23:06:02.374Z,5.40
2022-11-09T23:08:50.327Z,4.50
2022-11-09T23:11:36.581Z,4.73
2022-11-09T23:14:44.538Z,4.90
2022-11-09T23:17:50.087Z,5.10
2022-11-09T23:20:37.452Z,4.50
2022-11-09T23:23:23.965Z,3.80
2022-11-09T23:26:11.744Z,4.87
2022-11-09T23:28:58.637Z,3.80
2022-11-09T23:31:45.082Z,3.77
2022-11-09T23:34:33.657Z,4.83
2022-11-09T23:37:20.089Z,4.87
2022-11-09T23:40:08.915Z,4.37
2022-11-09T23:43:00.841Z,5.53
2022-11-09T23:45:48.061Z,5.33
2022-11-09T23:48:34.545Z,4.63
2022-11-09T23:51:23.293Z,5.00
2022-11-09T23:54:09.728Z,5.80
2022-11-09T23:56:55.915Z,4.93
2022-11-09T23:59:42.830Z,5.97
